sensor_id;sensor_type;location;lat;lon;timestamp;P1;durP1;ratioP1;P2;durP2;ratioP2
16193;SDS011;8204;53.582;10.080;2023-08-06T00:00:11;3.50;;;3.20;;
16193;SDS011;8204;53.582;10.080;2023-08-06T00:02:38;3.30;;;3.10;;
16193;SDS011;8204;53.582;10.080;2023-08-06T00:05:04;2.80;;;2.60;;
16193;SDS011;8204;53.582;10.080;2023-08-06T00:07:30;3.47;;;3.07;;
16193;SDS011;8204;53.582;10.080;2023-08-06T00:09:55;2.93;;;2.73;;
16193;SDS011;8204;53.582;10.080;2023-08-06T00:12:21;2.87;;;2.67;;
16193;SDS011;8204;53.582;10.080;2023-08-06T00:14:49;3.70;;;3.40;;
16193;SDS011;8204;53.582;10.080;2023-08-06T00:17:15;3.70;;;3.40;;
16193;SDS011;8204;53.582;10.080;2023-08-06T00:19:43;3.80;;;3.27;;
16193;SDS011;8204;53.582;10.080;2023-08-06T00:22:08;4.90;;;3.60;;
16193;SDS011;8204;53.582;10.080;2023-08-06T00:24:34;3.40;;;3.20;;
16193;SDS011;8204;53.582;10.080;2023-08-06T00:27:00;5.67;;;3.43;;
16193;SDS011;8204;53.582;10.080;2023-08-06T00:29:25;4.27;;;3.60;;
16193;SDS011;8204;53.582;10.080;2023-08-06T00:31:51;3.57;;;3.27;;
16193;SDS011;8204;53.582;10.080;2023-08-06T00:34:16;3.37;;;3.17;;
16193;SDS011;8204;53.582;10.080;2023-08-06T00:36:41;3.77;;;3.50;;
16193;SDS011;8204;53.582;10.080;2023-08-06T00:39:07;3.63;;;3.27;;
16193;SDS011;8204;53.582;10.080;2023-08-06T00:41:33;3.90;;;3.50;;
16193;SDS011;8204;53.582;10.080;2023-08-06T00:43:58;4.13;;;3.83;;
16193;SDS011;8204;53.582;10.080;2023-08-06T00:46:24;3.77;;;3.47;;
16193;SDS011;8204;53.582;10.080;2023-08-06T00:48:50;3.80;;;3.50;;
16193;SDS011;8204;53.582;10.080;2023-08-06T00:51:16;3.50;;;3.30;;
16193;SDS011;8204;53.582;10.080;2023-08-06T00:53:42;4.03;;;3.73;;
16193;SDS011;8204;53.582;10.080;2023-08-06T00:56:08;3.90;;;3.60;;
16193;SDS011;8204;53.582;10.080;2023-08-06T00:58:35;4.30;;;3.77;;
16193;SDS011;8204;53.582;10.080;2023-08-06T01:01:01;4.50;;;3.87;;
16193;SDS011;8204;53.582;10.080;2023-08-06T01:03:27;4.60;;;4.20;;
16193;SDS011;8204;53.582;10.080;2023-08-06T01:05:53;4.30;;;4.00;;
16193;SDS011;8204;53.582;10.080;2023-08-06T01:13:48;4.63;;;4.23;;
16193;SDS011;8204;53.582;10.080;2023-08-06T01:16:20;4.10;;;3.70;;
16193;SDS011;8204;53.582;10.080;2023-08-06T01:18:49;3.90;;;3.60;;
16193;SDS011;8204;53.582;10.080;2023-08-06T01:21:17;4.13;;;3.83;;
16193;SDS011;8204;53.582;10.080;2023-08-06T01:23:44;4.57;;;4.17;;
16193;SDS011;8204;53.582;10.080;2023-08-06T01:26:11;4.37;;;4.07;;
16193;SDS011;8204;53.582;10.080;2023-08-06T01:32:08;4.13;;;3.83;;
16193;SDS011;8204;53.582;10.080;2023-08-06T01:34:36;4.23;;;3.93;;
16193;SDS011;8204;53.582;10.080;2023-08-06T01:37:06;4.63;;;4.33;;
16193;SDS011;8204;53.582;10.080;2023-08-06T01:39:35;4.60;;;4.30;;
16193;SDS011;8204;53.582;10.080;2023-08-06T01:42:01;4.70;;;4.40;;
16193;SDS011;8204;53.582;10.080;2023-08-06T01:44:28;5.30;;;4.90;;
16193;SDS011;8204;53.582;10.080;2023-08-06T01:46:54;7.47;;;4.70;;
16193;SDS011;8204;53.582;10.080;2023-08-06T01:49:19;4.73;;;4.23;;
16193;SDS011;8204;53.582;10.080;2023-08-06T01:51:45;5.13;;;4.77;;
16193;SDS011;8204;53.582;10.080;2023-08-06T01:54:11;5.03;;;4.57;;
16193;SDS011;8204;53.582;10.080;2023-08-06T01:56:36;5.43;;;4.97;;
16193;SDS011;8204;53.582;10.080;2023-08-06T01:59:02;5.20;;;4.80;;
16193;SDS011;8204;53.582;10.080;2023-08-06T02:01:28;5.43;;;4.87;;
16193;SDS011;8204;53.582;10.080;2023-08-06T02:03:54;5.20;;;4.80;;
16193;SDS011;8204;53.582;10.080;2023-08-06T02:06:20;5.50;;;5.10;;
16193;SDS011;8204;53.582;10.080;2023-08-06T02:08:46;7.70;;;5.63;;
16193;SDS011;8204;53.582;10.080;2023-08-06T02:11:11;5.73;;;5.20;;
16193;SDS011;8204;53.582;10.080;2023-08-06T02:13:37;5.20;;;4.80;;
16193;SDS011;8204;53.582;10.080;2023-08-06T02:16:03;5.57;;;5.07;;
16193;SDS011;8204;53.582;10.080;2023-08-06T02:18:28;5.60;;;5.20;;
16193;SDS011;8204;53.582;10.080;2023-08-06T02:20:57;6.50;;;5.90;;
16193;SDS011;8204;53.582;10.080;2023-08-06T02:23:23;5.23;;;4.83;;
16193;SDS011;8204;53.582;10.080;2023-08-06T02:25:56;5.90;;;5.40;;
16193;SDS011;8204;53.582;10.080;2023-08-06T02:28:25;5.20;;;4.80;;
16193;SDS011;8204;53.582;10.080;2023-08-06T02:30:51;5.63;;;5.13;;
16193;SDS011;8204;53.582;10.080;2023-08-06T02:33:17;5.03;;;4.63;;
16193;SDS011;8204;53.582;10.080;2023-08-06T02:35:42;5.63;;;5.23;;
16193;SDS011;8204;53.582;10.080;2023-08-06T02:38:07;5.90;;;5.40;;
16193;SDS011;8204;53.582;10.080;2023-08-06T02:40:33;7.13;;;5.70;;
16193;SDS011;8204;53.582;10.080;2023-08-06T02:42:59;5.77;;;5.27;;
16193;SDS011;8204;53.582;10.080;2023-08-06T02:45:24;5.93;;;5.43;;
16193;SDS011;8204;53.582;10.080;2023-08-06T02:47:49;5.60;;;5.20;;
16193;SDS011;8204;53.582;10.080;2023-08-06T02:50:15;7.90;;;5.30;;
16193;SDS011;8204;53.582;10.080;2023-08-06T02:52:40;5.67;;;5.20;;
16193;SDS011;8204;53.582;10.080;2023-08-06T02:55:06;5.67;;;5.27;;
16193;SDS011;8204;53.582;10.080;2023-08-06T02:57:32;6.37;;;5.80;;
16193;SDS011;8204;53.582;10.080;2023-08-06T02:59:57;5.90;;;5.33;;
16193;SDS011;8204;53.582;10.080;2023-08-06T03:02:23;6.17;;;5.67;;
16193;SDS011;8204;53.582;10.080;2023-08-06T03:04:48;6.07;;;5.57;;
16193;SDS011;8204;53.582;10.080;2023-08-06T03:07:14;5.87;;;5.30;;
16193;SDS011;8204;53.582;10.080;2023-08-06T03:09:39;5.40;;;5.10;;
16193;SDS011;8204;53.582;10.080;2023-08-06T03:12:05;5.77;;;5.33;;
16193;SDS011;8204;53.582;10.080;2023-08-06T03:14:31;6.50;;;6.00;;
16193;SDS011;8204;53.582;10.080;2023-08-06T03:16:56;6.10;;;5.60;;
16193;SDS011;8204;53.582;10.080;2023-08-06T03:19:22;6.73;;;6.13;;
16193;SDS011;8204;53.582;10.080;2023-08-06T03:21:47;6.43;;;5.80;;
16193;SDS011;8204;53.582;10.080;2023-08-06T03:24:13;6.20;;;5.70;;
16193;SDS011;8204;53.582;10.080;2023-08-06T03:26:39;6.30;;;5.83;;
16193;SDS011;8204;53.582;10.080;2023-08-06T03:29:04;6.13;;;5.63;;
16193;SDS011;8204;53.582;10.080;2023-08-06T03:31:30;5.93;;;5.30;;
16193;SDS011;8204;53.582;10.080;2023-08-06T03:33:56;6.60;;;5.77;;
16193;SDS011;8204;53.582;10.080;2023-08-06T03:36:21;6.50;;;5.90;;
16193;SDS011;8204;53.582;10.080;2023-08-06T03:38:46;5.77;;;5.27;;
16193;SDS011;8204;53.582;10.080;2023-08-06T03:41:12;6.17;;;5.67;;
16193;SDS011;8204;53.582;10.080;2023-08-06T03:43:37;5.93;;;4.90;;
16193;SDS011;8204;53.582;10.080;2023-08-06T03:46:03;6.37;;;5.87;;
16193;SDS011;8204;53.582;10.080;2023-08-06T03:48:28;5.70;;;5.30;;
16193;SDS011;8204;53.582;10.080;2023-08-06T03:50:54;6.60;;;6.10;;
16193;SDS011;8204;53.582;10.080;2023-08-06T03:53:19;5.23;;;4.77;;
16193;SDS011;8204;53.582;10.080;2023-08-06T03:55:45;6.77;;;6.07;;
16193;SDS011;8204;53.582;10.080;2023-08-06T03:58:10;6.47;;;5.87;;
16193;SDS011;8204;53.582;10.080;2023-08-06T04:00:36;6.90;;;6.17;;
16193;SDS011;8204;53.582;10.080;2023-08-06T04:03:01;5.10;;;4.77;;
16193;SDS011;8204;53.582;10.080;2023-08-06T04:05:27;6.77;;;5.67;;
16193;SDS011;8204;53.582;10.080;2023-08-06T04:07:52;7.10;;;5.80;;
16193;SDS011;8204;53.582;10.080;2023-08-06T04:10:18;7.20;;;6.23;;
16193;SDS011;8204;53.582;10.080;2023-08-06T04:12:43;5.33;;;4.93;;
16193;SDS011;8204;53.582;10.080;2023-08-06T04:15:09;6.80;;;6.23;;
16193;SDS011;8204;53.582;10.080;2023-08-06T04:17:35;5.37;;;4.87;;
16193;SDS011;8204;53.582;10.080;2023-08-06T04:20:00;7.20;;;5.63;;
16193;SDS011;8204;53.582;10.080;2023-08-06T04:22:27;5.63;;;4.93;;
16193;SDS011;8204;53.582;10.080;2023-08-06T04:24:52;5.93;;;5.10;;
16193;SDS011;8204;53.582;10.080;2023-08-06T04:27:18;5.60;;;5.20;;
16193;SDS011;8204;53.582;10.080;2023-08-06T04:29:44;5.70;;;5.23;;
16193;SDS011;8204;53.582;10.080;2023-08-06T04:32:10;5.80;;;5.30;;
16193;SDS011;8204;53.582;10.080;2023-08-06T04:34:36;5.80;;;5.30;;
16193;SDS011;8204;53.582;10.080;2023-08-06T04:37:04;7.50;;;5.50;;
16193;SDS011;8204;53.582;10.080;2023-08-06T04:39:30;5.37;;;4.87;;
16193;SDS011;8204;53.582;10.080;2023-08-06T04:41:58;6.30;;;5.90;;
16193;SDS011;8204;53.582;10.080;2023-08-06T04:44:23;6.27;;;5.20;;
16193;SDS011;8204;53.582;10.080;2023-08-06T04:46:49;5.93;;;5.43;;
16193;SDS011;8204;53.582;10.080;2023-08-06T04:49:15;6.50;;;6.03;;
16193;SDS011;8204;53.582;10.080;2023-08-06T04:51:40;6.13;;;5.60;;
16193;SDS011;8204;53.582;10.080;2023-08-06T04:54:06;6.80;;;6.17;;
16193;SDS011;8204;53.582;10.080;2023-08-06T04:56:32;6.50;;;5.90;;
16193;SDS011;8204;53.582;10.080;2023-08-06T04:58:58;7.90;;;7.07;;
16193;SDS011;8204;53.582;10.080;2023-08-06T05:01:24;6.40;;;5.80;;
16193;SDS011;8204;53.582;10.080;2023-08-06T05:03:50;6.17;;;5.67;;
16193;SDS011;8204;53.582;10.080;2023-08-06T05:06:15;7.03;;;6.33;;
16193;SDS011;8204;53.582;10.080;2023-08-06T05:08:41;7.33;;;6.63;;
16193;SDS011;8204;53.582;10.080;2023-08-06T05:11:06;10.27;;;5.97;;
16193;SDS011;8204;53.582;10.080;2023-08-06T05:13:32;6.87;;;6.23;;
16193;SDS011;8204;53.582;10.080;2023-08-06T05:15:58;7.53;;;6.83;;
16193;SDS011;8204;53.582;10.080;2023-08-06T05:18:23;7.60;;;6.80;;
16193;SDS011;8204;53.582;10.080;2023-08-06T05:20:49;7.10;;;6.50;;
16193;SDS011;8204;53.582;10.080;2023-08-06T05:23:15;8.50;;;6.47;;
16193;SDS011;8204;53.582;10.080;2023-08-06T05:25:40;8.60;;;6.67;;
16193;SDS011;8204;53.582;10.080;2023-08-06T05:28:06;6.13;;;5.53;;
16193;SDS011;8204;53.582;10.080;2023-08-06T05:30:31;7.87;;;6.70;;
16193;SDS011;8204;53.582;10.080;2023-08-06T05:32:57;7.27;;;5.93;;
16193;SDS011;8204;53.582;10.080;2023-08-06T05:35:22;7.50;;;6.80;;
16193;SDS011;8204;53.582;10.080;2023-08-06T05:37:48;7.00;;;6.30;;
16193;SDS011;8204;53.582;10.080;2023-08-06T05:40:15;7.57;;;6.93;;
16193;SDS011;8204;53.582;10.080;2023-08-06T05:42:41;7.20;;;6.57;;
16193;SDS011;8204;53.582;10.080;2023-08-06T05:45:06;7.40;;;6.73;;
16193;SDS011;8204;53.582;10.080;2023-08-06T05:47:32;7.13;;;6.43;;
16193;SDS011;8204;53.582;10.080;2023-08-06T05:49:57;9.07;;;7.47;;
16193;SDS011;8204;53.582;10.080;2023-08-06T05:52:23;7.90;;;7.10;;
16193;SDS011;8204;53.582;10.080;2023-08-06T05:54:48;6.57;;;6.00;;
16193;SDS011;8204;53.582;10.080;2023-08-06T05:57:14;6.97;;;6.27;;
16193;SDS011;8204;53.582;10.080;2023-08-06T05:59:40;9.73;;;7.47;;
16193;SDS011;8204;53.582;10.080;2023-08-06T06:02:06;7.13;;;6.43;;
16193;SDS011;8204;53.582;10.080;2023-08-06T06:04:32;8.17;;;7.47;;
16193;SDS011;8204;53.582;10.080;2023-08-06T06:06:57;9.57;;;7.77;;
16193;SDS011;8204;53.582;10.080;2023-08-06T06:09:22;11.43;;;7.33;;
16193;SDS011;8204;53.582;10.080;2023-08-06T06:11:48;8.00;;;7.20;;
16193;SDS011;8204;53.582;10.080;2023-08-06T06:14:15;9.57;;;7.73;;
16193;SDS011;8204;53.582;10.080;2023-08-06T06:16:41;7.83;;;7.10;;
16193;SDS011;8204;53.582;10.080;2023-08-06T06:19:07;9.30;;;6.97;;
16193;SDS011;8204;53.582;10.080;2023-08-06T06:21:32;10.07;;;7.70;;
16193;SDS011;8204;53.582;10.080;2023-08-06T06:23:58;8.27;;;7.57;;
16193;SDS011;8204;53.582;10.080;2023-08-06T06:26:24;8.13;;;7.33;;
16193;SDS011;8204;53.582;10.080;2023-08-06T06:28:50;9.37;;;7.43;;
16193;SDS011;8204;53.582;10.080;2023-08-06T06:31:15;8.50;;;7.60;;
16193;SDS011;8204;53.582;10.080;2023-08-06T06:33:41;11.90;;;7.57;;
16193;SDS011;8204;53.582;10.080;2023-08-06T06:36:07;8.30;;;7.40;;
16193;SDS011;8204;53.582;10.080;2023-08-06T06:38:33;7.23;;;6.57;;
16193;SDS011;8204;53.582;10.080;2023-08-06T06:40:59;8.50;;;7.43;;
16193;SDS011;8204;53.582;10.080;2023-08-06T06:43:25;10.10;;;8.07;;
16193;SDS011;8204;53.582;10.080;2023-08-06T06:45:58;7.60;;;6.97;;
16193;SDS011;8204;53.582;10.080;2023-08-06T06:48:25;7.77;;;7.00;;
16193;SDS011;8204;53.582;10.080;2023-08-06T06:50:52;9.83;;;8.30;;
16193;SDS011;8204;53.582;10.080;2023-08-06T06:53:17;10.03;;;8.20;;
16193;SDS011;8204;53.582;10.080;2023-08-06T06:55:43;8.47;;;6.93;;
16193;SDS011;8204;53.582;10.080;2023-08-06T06:58:10;9.93;;;8.97;;
16193;SDS011;8204;53.582;10.080;2023-08-06T07:00:36;10.80;;;8.43;;
16193;SDS011;8204;53.582;10.080;2023-08-06T07:03:02;8.10;;;6.93;;
16193;SDS011;8204;53.582;10.080;2023-08-06T07:05:28;11.83;;;7.90;;
16193;SDS011;8204;53.582;10.080;2023-08-06T07:07:54;9.10;;;8.20;;
16193;SDS011;8204;53.582;10.080;2023-08-06T07:10:19;12.60;;;8.23;;
16193;SDS011;8204;53.582;10.080;2023-08-06T07:12:45;8.87;;;8.07;;
16193;SDS011;8204;53.582;10.080;2023-08-06T07:15:11;8.93;;;7.93;;
16193;SDS011;8204;53.582;10.080;2023-08-06T07:17:37;8.23;;;7.50;;
16193;SDS011;8204;53.582;10.080;2023-08-06T07:20:02;8.77;;;7.97;;
16193;SDS011;8204;53.582;10.080;2023-08-06T07:22:29;8.60;;;7.63;;
16193;SDS011;8204;53.582;10.080;2023-08-06T07:24:55;9.20;;;8.27;;
16193;SDS011;8204;53.582;10.080;2023-08-06T07:27:20;8.87;;;8.10;;
16193;SDS011;8204;53.582;10.080;2023-08-06T07:29:45;8.77;;;7.87;;
16193;SDS011;8204;53.582;10.080;2023-08-06T07:32:11;9.27;;;7.83;;
16193;SDS011;8204;53.582;10.080;2023-08-06T07:34:37;9.20;;;8.30;;
16193;SDS011;8204;53.582;10.080;2023-08-06T07:37:02;9.83;;;8.43;;
16193;SDS011;8204;53.582;10.080;2023-08-06T07:39:28;8.03;;;7.30;;
16193;SDS011;8204;53.582;10.080;2023-08-06T07:41:53;9.93;;;7.80;;
16193;SDS011;8204;53.582;10.080;2023-08-06T07:44:19;9.47;;;7.37;;
16193;SDS011;8204;53.582;10.080;2023-08-06T07:46:44;9.67;;;7.90;;
16193;SDS011;8204;53.582;10.080;2023-08-06T07:49:10;9.63;;;7.63;;
16193;SDS011;8204;53.582;10.080;2023-08-06T07:51:36;8.33;;;7.53;;
16193;SDS011;8204;53.582;10.080;2023-08-06T07:54:02;9.53;;;8.57;;
16193;SDS011;8204;53.582;10.080;2023-08-06T07:56:28;8.73;;;7.93;;
16193;SDS011;8204;53.582;10.080;2023-08-06T07:58:54;8.83;;;7.93;;
16193;SDS011;8204;53.582;10.080;2023-08-06T08:01:19;10.10;;;8.23;;
16193;SDS011;8204;53.582;10.080;2023-08-06T08:03:45;9.80;;;8.90;;
16193;SDS011;8204;53.582;10.080;2023-08-06T08:06:11;8.87;;;7.97;;
16193;SDS011;8204;53.582;10.080;2023-08-06T08:08:36;9.50;;;8.50;;
16193;SDS011;8204;53.582;10.080;2023-08-06T08:11:03;9.40;;;8.60;;
16193;SDS011;8204;53.582;10.080;2023-08-06T08:13:29;8.97;;;8.27;;
16193;SDS011;8204;53.582;10.080;2023-08-06T08:15:58;8.67;;;7.87;;
16193;SDS011;8204;53.582;10.080;2023-08-06T08:18:24;8.30;;;7.60;;
16193;SDS011;8204;53.582;10.080;2023-08-06T08:20:51;7.90;;;7.30;;
16193;SDS011;8204;53.582;10.080;2023-08-06T08:23:16;9.13;;;8.10;;
16193;SDS011;8204;53.582;10.080;2023-08-06T08:25:42;9.37;;;8.57;;
16193;SDS011;8204;53.582;10.080;2023-08-06T08:28:08;9.33;;;8.60;;
16193;SDS011;8204;53.582;10.080;2023-08-06T08:30:34;10.47;;;8.63;;
16193;SDS011;8204;53.582;10.080;2023-08-06T08:33:01;9.93;;;8.90;;
16193;SDS011;8204;53.582;10.080;2023-08-06T08:35:27;9.40;;;8.60;;
16193;SDS011;8204;53.582;10.080;2023-08-06T08:37:53;10.27;;;9.20;;
16193;SDS011;8204;53.582;10.080;2023-08-06T08:40:20;8.93;;;8.10;;
16193;SDS011;8204;53.582;10.080;2023-08-06T08:42:53;10.53;;;9.53;;
16193;SDS011;8204;53.582;10.080;2023-08-06T08:45:20;11.20;;;8.63;;
16193;SDS011;8204;53.582;10.080;2023-08-06T08:47:49;9.87;;;8.97;;
16193;SDS011;8204;53.582;10.080;2023-08-06T08:50:15;10.07;;;9.17;;
16193;SDS011;8204;53.582;10.080;2023-08-06T08:52:43;9.73;;;8.77;;
16193;SDS011;8204;53.582;10.080;2023-08-06T08:55:11;9.63;;;8.83;;
16193;SDS011;8204;53.582;10.080;2023-08-06T08:57:39;9.47;;;8.70;;
16193;SDS011;8204;53.582;10.080;2023-08-06T09:00:05;9.20;;;8.50;;
16193;SDS011;8204;53.582;10.080;2023-08-06T09:02:30;10.47;;;9.40;;
16193;SDS011;8204;53.582;10.080;2023-08-06T09:04:58;9.40;;;8.60;;
16193;SDS011;8204;53.582;10.080;2023-08-06T09:07:28;10.93;;;9.90;;
16193;SDS011;8204;53.582;10.080;2023-08-06T09:09:56;10.30;;;9.13;;
16193;SDS011;8204;53.582;10.080;2023-08-06T09:12:25;9.63;;;8.93;;
16193;SDS011;8204;53.582;10.080;2023-08-06T09:14:52;10.87;;;9.47;;
16193;SDS011;8204;53.582;10.080;2023-08-06T09:17:18;14.17;;;8.90;;
16193;SDS011;8204;53.582;10.080;2023-08-06T09:19:46;9.70;;;8.70;;
16193;SDS011;8204;53.582;10.080;2023-08-06T09:22:14;9.00;;;8.30;;
16193;SDS011;8204;53.582;10.080;2023-08-06T09:24:40;9.17;;;8.37;;
16193;SDS011;8204;53.582;10.080;2023-08-06T09:27:13;9.47;;;8.53;;
16193;SDS011;8204;53.582;10.080;2023-08-06T09:29:40;9.13;;;8.23;;
16193;SDS011;8204;53.582;10.080;2023-08-06T09:32:07;10.37;;;9.10;;
16193;SDS011;8204;53.582;10.080;2023-08-06T09:34:32;10.80;;;9.83;;
16193;SDS011;8204;53.582;10.080;2023-08-06T09:36:57;10.30;;;9.40;;
16193;SDS011;8204;53.582;10.080;2023-08-06T09:39:27;10.53;;;9.53;;
16193;SDS011;8204;53.582;10.080;2023-08-06T09:42:00;10.70;;;9.30;;
16193;SDS011;8204;53.582;10.080;2023-08-06T09:44:27;10.43;;;9.30;;
16193;SDS011;8204;53.582;10.080;2023-08-06T09:46:59;9.13;;;8.43;;
16193;SDS011;8204;53.582;10.080;2023-08-06T09:49:28;12.47;;;9.00;;
16193;SDS011;8204;53.582;10.080;2023-08-06T09:52:05;39.93;;;35.97;;
16193;SDS011;8204;53.582;10.080;2023-08-06T09:54:31;51.40;;;46.07;;
16193;SDS011;8204;53.582;10.080;2023-08-06T09:56:58;15.67;;;14.23;;
16193;SDS011;8204;53.582;10.080;2023-08-06T09:59:23;13.53;;;11.80;;
16193;SDS011;8204;53.582;10.080;2023-08-06T10:01:50;12.10;;;10.73;;
16193;SDS011;8204;53.582;10.080;2023-08-06T10:04:16;11.57;;;10.40;;
16193;SDS011;8204;53.582;10.080;2023-08-06T10:06:43;11.17;;;10.20;;
16193;SDS011;8204;53.582;10.080;2023-08-06T10:09:12;10.97;;;10.17;;
16193;SDS011;8204;53.582;10.080;2023-08-06T10:11:38;11.37;;;10.00;;
16193;SDS011;8204;53.582;10.080;2023-08-06T10:14:26;11.17;;;10.17;;
16193;SDS011;8204;53.582;10.080;2023-08-06T10:16:57;11.73;;;10.83;;
16193;SDS011;8204;53.582;10.080;2023-08-06T10:19:24;9.67;;;8.87;;
16193;SDS011;8204;53.582;10.080;2023-08-06T10:24:46;10.70;;;9.70;;
16193;SDS011;8204;53.582;10.080;2023-08-06T10:27:14;10.60;;;8.77;;
16193;SDS011;8204;53.582;10.080;2023-08-06T10:29:45;10.03;;;9.33;;
16193;SDS011;8204;53.582;10.080;2023-08-06T10:32:10;10.87;;;9.97;;
16193;SDS011;8204;53.582;10.080;2023-08-06T10:37:22;11.47;;;10.33;;
16193;SDS011;8204;53.582;10.080;2023-08-06T10:39:51;11.87;;;10.53;;
16193;SDS011;8204;53.582;10.080;2023-08-06T10:42:27;11.13;;;10.13;;
16193;SDS011;8204;53.582;10.080;2023-08-06T10:47:43;10.27;;;9.17;;
16193;SDS011;8204;53.582;10.080;2023-08-06T10:50:11;9.17;;;8.43;;
16193;SDS011;8204;53.582;10.080;2023-08-06T10:52:39;9.87;;;9.07;;
16193;SDS011;8204;53.582;10.080;2023-08-06T10:55:05;11.23;;;10.43;;
16193;SDS011;8204;53.582;10.080;2023-08-06T10:57:31;9.60;;;8.83;;
16193;SDS011;8204;53.582;10.080;2023-08-06T10:59:56;9.13;;;8.27;;
16193;SDS011;8204;53.582;10.080;2023-08-06T11:02:22;9.30;;;8.67;;
16193;SDS011;8204;53.582;10.080;2023-08-06T11:04:48;8.70;;;8.20;;
16193;SDS011;8204;53.582;10.080;2023-08-06T11:07:14;9.60;;;8.90;;
16193;SDS011;8204;53.582;10.080;2023-08-06T11:09:40;9.37;;;8.57;;
16193;SDS011;8204;53.582;10.080;2023-08-06T11:12:11;9.33;;;8.63;;
16193;SDS011;8204;53.582;10.080;2023-08-06T11:14:37;10.43;;;9.57;;
16193;SDS011;8204;53.582;10.080;2023-08-06T11:17:04;9.53;;;8.83;;
16193;SDS011;8204;53.582;10.080;2023-08-06T11:19:31;9.47;;;8.77;;
16193;SDS011;8204;53.582;10.080;2023-08-06T11:21:57;9.33;;;8.63;;
16193;SDS011;8204;53.582;10.080;2023-08-06T11:24:23;9.30;;;8.60;;
16193;SDS011;8204;53.582;10.080;2023-08-06T11:26:52;8.90;;;8.20;;
16193;SDS011;8204;53.582;10.080;2023-08-06T11:29:18;9.30;;;8.47;;
16193;SDS011;8204;53.582;10.080;2023-08-06T11:31:46;8.90;;;8.20;;
16193;SDS011;8204;53.582;10.080;2023-08-06T11:34:12;10.23;;;8.83;;
16193;SDS011;8204;53.582;10.080;2023-08-06T11:36:40;9.40;;;8.70;;
16193;SDS011;8204;53.582;10.080;2023-08-06T11:39:08;9.97;;;9.20;;
16193;SDS011;8204;53.582;10.080;2023-08-06T11:41:35;8.47;;;7.77;;
16193;SDS011;8204;53.582;10.080;2023-08-06T11:44:03;9.13;;;8.30;;
16193;SDS011;8204;53.582;10.080;2023-08-06T11:46:31;12.53;;;8.67;;
16193;SDS011;8204;53.582;10.080;2023-08-06T11:55:01;8.50;;;7.90;;
16193;SDS011;8204;53.582;10.080;2023-08-06T11:57:33;10.60;;;9.63;;
16193;SDS011;8204;53.582;10.080;2023-08-06T12:00:02;10.47;;;9.47;;
16193;SDS011;8204;53.582;10.080;2023-08-06T12:02:39;9.00;;;8.33;;
16193;SDS011;8204;53.582;10.080;2023-08-06T12:05:11;8.13;;;7.47;;
16193;SDS011;8204;53.582;10.080;2023-08-06T12:07:41;9.57;;;8.77;;
16193;SDS011;8204;53.582;10.080;2023-08-06T12:10:12;9.47;;;8.83;;
16193;SDS011;8204;53.582;10.080;2023-08-06T12:12:41;10.30;;;9.30;;
16193;SDS011;8204;53.582;10.080;2023-08-06T12:15:07;9.50;;;8.63;;
16193;SDS011;8204;53.582;10.080;2023-08-06T12:17:34;9.60;;;8.70;;
16193;SDS011;8204;53.582;10.080;2023-08-06T12:20:00;8.63;;;7.93;;
16193;SDS011;8204;53.582;10.080;2023-08-06T12:22:26;9.00;;;8.30;;
16193;SDS011;8204;53.582;10.080;2023-08-06T12:24:52;9.37;;;8.57;;
16193;SDS011;8204;53.582;10.080;2023-08-06T12:27:18;8.53;;;7.80;;
16193;SDS011;8204;53.582;10.080;2023-08-06T12:29:45;8.40;;;7.70;;
16193;SDS011;8204;53.582;10.080;2023-08-06T12:32:12;10.13;;;9.33;;
16193;SDS011;8204;53.582;10.080;2023-08-06T12:34:39;8.70;;;8.03;;
16193;SDS011;8204;53.582;10.080;2023-08-06T12:37:06;10.17;;;9.00;;
16193;SDS011;8204;53.582;10.080;2023-08-06T12:39:35;10.47;;;9.57;;
16193;SDS011;8204;53.582;10.080;2023-08-06T12:42:04;9.10;;;8.30;;
16193;SDS011;8204;53.582;10.080;2023-08-06T12:44:30;9.40;;;8.60;;
16193;SDS011;8204;53.582;10.080;2023-08-06T12:46:57;8.97;;;8.17;;
16193;SDS011;8204;53.582;10.080;2023-08-06T12:49:24;8.30;;;7.47;;
16193;SDS011;8204;53.582;10.080;2023-08-06T12:51:51;9.23;;;8.50;;
16193;SDS011;8204;53.582;10.080;2023-08-06T12:54:19;8.80;;;7.90;;
16193;SDS011;8204;53.582;10.080;2023-08-06T12:56:46;9.20;;;8.37;;
16193;SDS011;8204;53.582;10.080;2023-08-06T12:59:15;8.27;;;7.70;;
16193;SDS011;8204;53.582;10.080;2023-08-06T13:01:42;10.23;;;7.90;;
16193;SDS011;8204;53.582;10.080;2023-08-06T13:04:08;8.47;;;7.83;;
16193;SDS011;8204;53.582;10.080;2023-08-06T13:06:33;9.03;;;8.30;;
16193;SDS011;8204;53.582;10.080;2023-08-06T13:09:03;9.37;;;8.47;;
16193;SDS011;8204;53.582;10.080;2023-08-06T13:11:30;8.60;;;7.80;;
16193;SDS011;8204;53.582;10.080;2023-08-06T13:13:58;8.37;;;7.67;;
16193;SDS011;8204;53.582;10.080;2023-08-06T13:16:24;8.07;;;7.37;;
16193;SDS011;8204;53.582;10.080;2023-08-06T13:18:50;8.70;;;7.97;;
16193;SDS011;8204;53.582;10.080;2023-08-06T13:21:15;8.63;;;7.97;;
16193;SDS011;8204;53.582;10.080;2023-08-06T13:23:41;8.70;;;7.90;;
16193;SDS011;8204;53.582;10.080;2023-08-06T13:26:07;9.80;;;8.87;;
16193;SDS011;8204;53.582;10.080;2023-08-06T13:28:33;10.53;;;9.40;;
16193;SDS011;8204;53.582;10.080;2023-08-06T13:30:58;8.30;;;7.70;;
16193;SDS011;8204;53.582;10.080;2023-08-06T13:33:24;9.73;;;8.63;;
16193;SDS011;8204;53.582;10.080;2023-08-06T13:35:49;9.20;;;8.47;;
16193;SDS011;8204;53.582;10.080;2023-08-06T13:38:16;7.60;;;6.93;;
16193;SDS011;8204;53.582;10.080;2023-08-06T13:40:41;8.90;;;8.10;;
16193;SDS011;8204;53.582;10.080;2023-08-06T13:43:10;8.57;;;7.77;;
16193;SDS011;8204;53.582;10.080;2023-08-06T13:45:35;7.97;;;7.20;;
16193;SDS011;8204;53.582;10.080;2023-08-06T13:48:02;8.73;;;6.50;;
16193;SDS011;8204;53.582;10.080;2023-08-06T13:50:28;9.20;;;7.57;;
16193;SDS011;8204;53.582;10.080;2023-08-06T13:52:54;8.67;;;8.00;;
16193;SDS011;8204;53.582;10.080;2023-08-06T13:55:21;6.53;;;6.03;;
16193;SDS011;8204;53.582;10.080;2023-08-06T13:57:47;6.73;;;6.10;;
16193;SDS011;8204;53.582;10.080;2023-08-06T14:00:13;7.07;;;6.40;;
16193;SDS011;8204;53.582;10.080;2023-08-06T14:02:38;6.10;;;5.60;;
16193;SDS011;8204;53.582;10.080;2023-08-06T14:05:04;7.47;;;6.77;;
16193;SDS011;8204;53.582;10.080;2023-08-06T14:07:30;7.50;;;6.17;;
16193;SDS011;8204;53.582;10.080;2023-08-06T14:09:55;5.93;;;5.53;;
16193;SDS011;8204;53.582;10.080;2023-08-06T14:12:22;5.63;;;5.23;;
16193;SDS011;8204;53.582;10.080;2023-08-06T14:14:48;5.57;;;5.10;;
16193;SDS011;8204;53.582;10.080;2023-08-06T14:17:13;6.40;;;5.90;;
16193;SDS011;8204;53.582;10.080;2023-08-06T14:19:39;5.83;;;5.33;;
16193;SDS011;8204;53.582;10.080;2023-08-06T14:22:05;5.53;;;5.03;;
16193;SDS011;8204;53.582;10.080;2023-08-06T14:24:31;5.30;;;4.90;;
16193;SDS011;8204;53.582;10.080;2023-08-06T14:26:56;4.87;;;4.33;;
16193;SDS011;8204;53.582;10.080;2023-08-06T14:29:21;5.10;;;4.70;;
16193;SDS011;8204;53.582;10.080;2023-08-06T14:31:47;4.87;;;4.57;;
16193;SDS011;8204;53.582;10.080;2023-08-06T14:34:12;5.73;;;5.10;;
16193;SDS011;8204;53.582;10.080;2023-08-06T14:36:38;5.33;;;4.97;;
16193;SDS011;8204;53.582;10.080;2023-08-06T14:39:03;5.47;;;4.47;;
16193;SDS011;8204;53.582;10.080;2023-08-06T14:41:30;4.67;;;4.30;;
16193;SDS011;8204;53.582;10.080;2023-08-06T14:43:55;6.20;;;4.70;;
16193;SDS011;8204;53.582;10.080;2023-08-06T14:46:20;6.37;;;4.57;;
16193;SDS011;8204;53.582;10.080;2023-08-06T14:48:46;4.33;;;3.93;;
16193;SDS011;8204;53.582;10.080;2023-08-06T14:51:11;5.00;;;4.60;;
16193;SDS011;8204;53.582;10.080;2023-08-06T14:53:37;5.17;;;4.67;;
16193;SDS011;8204;53.582;10.080;2023-08-06T14:56:04;4.77;;;4.03;;
16193;SDS011;8204;53.582;10.080;2023-08-06T14:58:29;7.30;;;4.33;;
16193;SDS011;8204;53.582;10.080;2023-08-06T15:00:54;4.30;;;3.80;;
16193;SDS011;8204;53.582;10.080;2023-08-06T15:03:20;4.50;;;4.10;;